Time,TemperatureF,DewpointF,PressureIn,WindDirection,WindDirectionDegrees,WindSpeedMPH,WindSpeedGustMPH,Humidity,HourlyPrecipIn,Conditions,Clouds,dailyrainin,SoftwareType,DateUTC
2014-04-18 00:01:00,77.0,72.1,30.08,ENE,74,4.6,4.6,85,0.00,RA,,0.00,WeatherDisplay:10.37,2014-04-18 04:01:00,
2014-04-18 00:03:00,77.0,72.1,30.08,ESE,110,4.6,4.6,85,0.00,RA,,0.00,WeatherDisplay:10.37,2014-04-18 04:03:00,
2014-04-18 00:08:00,77.0,72.1,30.08,East,84,6.0,6.0,85,0.00,RA,,0.00,WeatherDisplay:10.37,2014-04-18 04:08:00,
2014-04-18 00:13:00,76.9,72.4,30.08,ENE,68,6.0,6.0,86,0.00,CLR,,0.00,WeatherDisplay:10.37,2014-04-18 04:13:00,
2014-04-18 00:18:00,76.9,72.4,30.08,ENE,63,5.8,5.8,86,0.00,CLR,,0.00,WeatherDisplay:10.37,2014-04-18 04:18:00,
2014-04-18 00:23:00,76.9,72.7,30.08,ENE,57,8.1,8.1,87,0.00,CLR,,0.00,WeatherDisplay:10.37,2014-04-18 04:23:00,
2014-04-18 00:28:00,76.7,72.5,30.08,NE,48,5.0,5.0,87,0.00,CLR,,0.00,WeatherDisplay:10.37,2014-04-18 04:28:00,
2014-04-18 00:33:00,76.5,72.7,30.07,ENE,74,4.6,4.6,88,0.00,CLR,,0.00,WeatherDisplay:10.37,2014-04-18 04:33:00,
2014-04-18 00:38:00,76.5,72.7,30.07,ENE,76,6.9,6.9,88,0.00,CLR,,0.00,WeatherDisplay:10.37,2014-04-18 04:38:00,
2014-04-18 00:43:00,76.5,72.7,30.07,ESE,119,6.9,6.9,88,0.00,CLR,,0.00,WeatherDisplay:10.37,2014-04-18 04:43:00,
2014-04-18 00:48:00,76.5,72.7,30.07,ENE,76,3.5,3.6,88,0.00,CLR,,0.00,WeatherDisplay:10.37,2014-04-18 04:48:00,
2014-04-18 00:53:00,76.4,72.6,30.06,East,86,4.6,4.6,88,0.00,CLR,,0.00,WeatherDisplay:10.37,2014-04-18 04:53:00,
2014-04-18 00:58:00,76.4,72.9,30.06,ENE,69,6.0,6.0,89,0.00,CLR,,0.00,WeatherDisplay:10.37,2014-04-18 04:58:00,
2014-04-18 01:03:00,76.3,72.8,30.06,ENE,78,3.5,3.5,89,0.00,CLR,,0.00,WeatherDisplay:10.37,2014-04-18 05:03:00,
2014-04-18 01:08:00,76.2,72.7,30.06,ENE,66,3.5,3.5,89,0.00,CLR,,0.00,WeatherDisplay:10.37,2014-04-18 05:08:00,
2014-04-18 01:13:00,76.1,72.6,30.06,ENE,74,4.6,4.6,89,0.00,CLR,,0.00,WeatherDisplay:10.37,2014-04-18 05:13:00,
2014-04-18 01:18:00,76.1,73.0,30.07,ESE,107,13.0,13.0,90,0.00,CLR,,0.00,WeatherDisplay:10.37,2014-04-18 05:18:00,
2014-04-18 01:23:00,75.1,71.3,30.06,SE,139,9.2,9.2,88,0.03,RA,,0.03,WeatherDisplay:10.37,2014-04-18 05:23:00,
2014-04-18 01:28:00,74.2,71.1,30.06,East,92,4.0,4.0,90,0.06,RA,,0.06,WeatherDisplay:10.37,2014-04-18 05:28:00,
2014-04-18 01:33:00,73.6,70.8,30.05,East,97,4.0,4.0,91,0.07,RA,,0.07,WeatherDisplay:10.37,2014-04-18 05:33:00,
2014-04-18 01:38:00,73.3,70.8,30.05,East,88,4.6,4.6,92,0.07,RA,,0.07,WeatherDisplay:10.37,2014-04-18 05:38:00,
2014-04-18 01:43:00,73.1,71.0,30.05,ESE,104,4.0,4.0,93,0.07,,,0.07,WeatherDisplay:10.37,2014-04-18 05:43:00,
2014-04-18 01:48:00,73.1,71.3,30.05,ENE,65,4.0,4.0,94,0.07,CLR,,0.07,WeatherDisplay:10.37,2014-04-18 05:48:00,
2014-04-18 01:53:00,73.2,71.4,30.05,East,79,3.5,3.5,94,0.07,CLR,,0.07,WeatherDisplay:10.37,2014-04-18 05:53:00,
2014-04-18 01:58:00,73.3,71.5,30.04,ENE,74,3.5,3.5,94,0.07,CLR,,0.07,WeatherDisplay:10.37,2014-04-18 05:58:00,
2014-04-18 02:03:00,73.4,71.9,30.04,ENE,78,2.3,2.3,95,0.07,CLR,,0.07,WeatherDisplay:10.37,2014-04-18 06:03:00,
2014-04-18 02:08:00,73.5,72.0,30.04,NE,51,2.3,2.3,95,0.07,CLR,,0.07,WeatherDisplay:10.37,2014-04-18 06:08:00,
2014-04-18 02:13:00,73.4,71.9,30.04,East,84,2.0,2.0,95,0.07,CLR,,0.07,WeatherDisplay:10.37,2014-04-18 06:13:00,
2014-04-18 02:18:00,73.4,71.9,30.04,ENE,63,3.5,3.5,95,0.07,CLR,,0.07,WeatherDisplay:10.37,2014-04-18 06:18:00,
2014-04-18 02:23:00,73.3,71.8,30.04,ENE,66,2.3,2.3,95,0.04,CLR,,0.07,WeatherDisplay:10.37,2014-04-18 06:23:00,
2014-04-18 02:28:00,73.2,71.7,30.04,ENE,74,0.0,0.0,95,0.01,CLR,,0.07,WeatherDisplay:10.37,2014-04-18 06:28:00,
2014-04-18 02:33:00,73.2,71.7,30.03,ENE,61,0.0,0.0,95,0.01,RA,,0.08,WeatherDisplay:10.37,2014-04-18 06:33:00,
2014-04-18 02:38:00,73.1,71.6,30.04,NE,50,0.0,0.0,95,0.01,RA,,0.08,WeatherDisplay:10.37,2014-04-18 06:38:00,
2014-04-18 02:43:00,73.1,71.6,30.03,NE,50,0.0,0.0,95,0.01,,,0.08,WeatherDisplay:10.37,2014-04-18 06:43:00,
2014-04-18 02:48:00,73.1,71.9,30.03,NE,50,0.0,0.0,96,0.01,CLR,,0.08,WeatherDisplay:10.37,2014-04-18 06:48:00,
2014-04-18 02:53:00,73.1,71.9,30.03,NE,50,0.0,0.0,96,0.01,CLR,,0.08,WeatherDisplay:10.37,2014-04-18 06:53:00,
2014-04-18 02:58:00,73.0,71.8,30.03,NE,49,0.0,0.0,96,0.01,CLR,,0.08,WeatherDisplay:10.37,2014-04-18 06:58:00,
2014-04-18 03:03:00,72.9,71.7,30.03,NE,54,0.0,0.0,96,0.01,CLR,,0.08,WeatherDisplay:10.37,2014-04-18 07:03:00,
2014-04-18 03:08:00,72.9,71.7,30.03,East,85,0.0,0.0,96,0.01,CLR,,0.08,WeatherDisplay:10.37,2014-04-18 07:08:00,
2014-04-18 03:13:00,72.8,71.6,30.02,East,86,0.0,0.0,96,0.01,CLR,,0.08,WeatherDisplay:10.37,2014-04-18 07:13:00,
2014-04-18 03:18:00,72.8,71.6,30.02,East,87,0.0,0.0,96,0.01,CLR,,0.08,WeatherDisplay:10.37,2014-04-18 07:18:00,
2014-04-18 03:23:00,72.8,71.6,30.02,East,84,3.5,3.5,96,0.01,CLR,,0.08,WeatherDisplay:10.37,2014-04-18 07:23:00,
2014-04-18 03:28:00,72.8,71.6,30.02,East,84,0.0,0.0,96,0.01,CLR,,0.08,WeatherDisplay:10.37,2014-04-18 07:28:00,
2014-04-18 03:33:00,72.8,71.6,30.02,East,96,2.3,2.3,96,0.00,CLR,,0.08,WeatherDisplay:10.37,2014-04-18 07:33:00,
2014-04-18 03:38:00,72.9,71.7,30.02,ESE,122,0.0,0.0,96,0.00,CLR,,0.08,WeatherDisplay:10.37,2014-04-18 07:38:00,
2014-04-18 03:43:00,72.9,71.7,30.02,SE,125,0.0,0.0,96,0.00,CLR,,0.08,WeatherDisplay:10.37,2014-04-18 07:43:00,
2014-04-18 03:48:00,72.9,71.7,30.02,SE,126,0.0,0.0,96,0.00,CLR,,0.08,WeatherDisplay:10.37,2014-04-18 07:48:00,
2014-04-18 03:53:00,72.8,71.6,30.02,SE,126,0.0,0.0,96,0.00,CLR,,0.08,WeatherDisplay:10.37,2014-04-18 07:53:00,
2014-04-18 03:58:00,72.7,71.5,30.02,SE,126,0.0,0.0,96,0.00,CLR,,0.08,WeatherDisplay:10.37,2014-04-18 07:58:00,
2014-04-18 04:03:00,72.7,71.5,30.02,SE,126,0.0,0.0,96,0.00,CLR,,0.08,WeatherDisplay:10.37,2014-04-18 08:03:00,
2014-04-18 04:08:00,72.6,71.4,30.02,SE,126,0.0,0.0,96,0.00,CLR,,0.08,WeatherDisplay:10.37,2014-04-18 08:08:00,
2014-04-18 04:13:00,72.6,71.4,30.02,SE,126,0.0,0.0,96,0.00,CLR,,0.08,WeatherDisplay:10.37,2014-04-18 08:13:00,
2014-04-18 04:18:00,72.6,71.4,30.02,SE,126,0.0,0.0,96,0.00,CLR,,0.08,WeatherDisplay:10.37,2014-04-18 08:18:00,
2014-04-18 04:23:00,72.5,71.3,30.02,SE,125,0.0,0.0,96,0.00,CLR,,0.08,WeatherDisplay:10.37,2014-04-18 08:23:00,
2014-04-18 04:28:00,72.5,71.3,30.02,ESE,103,0.0,0.0,96,0.00,CLR,,0.08,WeatherDisplay:10.37,2014-04-18 08:28:00,
2014-04-18 04:33:00,72.4,71.2,30.02,ESE,119,0.0,0.0,96,0.00,CLR,,0.08,WeatherDisplay:10.37,2014-04-18 08:33:00,
2014-04-18 04:38:00,72.3,71.1,30.02,East,94,0.0,0.0,96,0.00,CLR,,0.08,WeatherDisplay:10.37,2014-04-18 08:38:00,
2014-04-18 04:43:00,71.7,70.5,30.02,East,94,0.0,0.0,96,0.00,CLR,,0.08,WeatherDisplay:10.37,2014-04-18 08:43:00,
2014-04-18 04:48:00,71.7,70.5,30.01,East,94,0.0,0.0,96,0.00,CLR,,0.08,WeatherDisplay:10.37,2014-04-18 08:48:00,
2014-04-18 04:54:00,71.7,70.5,30.01,North,1,0.0,0.0,96,0.00,CLR,,0.08,WeatherDisplay:10.37,2014-04-18 08:54:00,
2014-04-18 04:59:00,71.7,70.5,30.01,North,0,0.0,0.0,96,0.00,CLR,,0.08,WeatherDisplay:10.37,2014-04-18 08:59:00,
2014-04-18 05:04:00,71.7,70.5,30.01,North,0,0.0,0.0,96,0.00,CLR,,0.08,WeatherDisplay:10.37,2014-04-18 09:04:00,
2014-04-18 05:09:00,71.7,70.5,30.01,North,0,0.0,0.0,96,0.00,CLR,,0.08,WeatherDisplay:10.37,2014-04-18 09:09:00,
2014-04-18 05:14:00,71.7,70.5,30.00,North,0,0.0,0.0,96,0.00,CLR,,0.08,WeatherDisplay:10.37,2014-04-18 09:14:00,
2014-04-18 05:19:00,71.7,70.5,30.00,North,0,0.0,0.0,96,0.00,CLR,,0.08,WeatherDisplay:10.37,2014-04-18 09:19:00,
2014-04-18 05:24:00,71.7,70.5,30.00,North,0,0.0,0.0,96,0.00,CLR,,0.08,WeatherDisplay:10.37,2014-04-18 09:24:00,
2014-04-18 05:29:00,71.7,70.5,30.00,North,0,0.0,0.0,96,0.00,CLR,,0.08,WeatherDisplay:10.37,2014-04-18 09:29:00,
2014-04-18 05:34:00,71.7,70.5,30.00,North,0,0.0,0.0,96,0.00,CLR,,0.08,WeatherDisplay:10.37,2014-04-18 09:34:00,
2014-04-18 05:39:00,71.7,70.5,30.00,North,0,0.0,0.0,96,0.00,CLR,,0.08,WeatherDisplay:10.37,2014-04-18 09:39:00,
2014-04-18 05:44:00,71.7,70.5,30.00,North,0,0.0,0.0,96,0.00,CLR,,0.08,WeatherDisplay:10.37,2014-04-18 09:44:00,
2014-04-18 05:49:00,71.7,70.5,30.00,North,0,0.0,0.0,96,0.00,CLR,,0.08,WeatherDisplay:10.37,2014-04-18 09:49:00,
2014-04-18 05:54:00,71.7,70.5,29.99,North,0,0.0,0.0,96,0.00,CLR,,0.08,WeatherDisplay:10.37,2014-04-18 09:54:00,
2014-04-18 05:59:00,71.7,70.5,30.00,North,0,0.0,0.0,96,0.00,CLR,,0.08,WeatherDisplay:10.37,2014-04-18 09:59:00,
2014-04-18 06:04:00,71.7,70.5,30.00,North,0,0.0,0.0,96,0.00,CLR,,0.08,WeatherDisplay:10.37,2014-04-18 10:04:00,
2014-04-18 06:09:00,71.7,70.5,30.00,North,0,0.0,0.0,96,0.00,CLR,,0.08,WeatherDisplay:10.37,2014-04-18 10:09:00,
2014-04-18 06:14:00,71.7,70.5,30.00,North,0,0.0,0.0,96,0.00,CLR,,0.08,WeatherDisplay:10.37,2014-04-18 10:14:00,
2014-04-18 06:19:00,71.7,70.5,30.00,North,0,0.0,0.0,96,0.00,CLR,,0.08,WeatherDisplay:10.37,2014-04-18 10:19:00,
2014-04-18 06:24:00,71.7,70.5,30.00,North,0,0.0,0.0,96,0.00,CLR,,0.08,WeatherDisplay:10.37,2014-04-18 10:24:00,
2014-04-18 06:29:00,71.7,70.5,30.00,North,0,0.0,0.0,96,0.00,CLR,,0.08,WeatherDisplay:10.37,2014-04-18 10:29:00,
2014-04-18 06:34:00,71.7,70.5,30.00,North,0,0.0,0.0,96,0.00,CLR,,0.08,WeatherDisplay:10.37,2014-04-18 10:34:00,
2014-04-18 06:39:00,71.7,70.5,30.01,North,0,0.0,0.0,96,0.00,CLR,,0.08,WeatherDisplay:10.37,2014-04-18 10:39:00,
2014-04-18 06:44:00,71.7,70.5,30.01,North,0,0.0,0.0,96,0.00,CLR,,0.08,WeatherDisplay:10.37,2014-04-18 10:44:00,
2014-04-18 06:49:00,71.7,70.5,30.01,North,0,0.0,0.0,96,0.00,CLR,,0.08,WeatherDisplay:10.37,2014-04-18 10:49:00,
2014-04-18 06:54:00,71.7,70.5,30.01,North,0,0.0,0.0,96,0.00,CLR,,0.08,WeatherDisplay:10.37,2014-04-18 10:54:00,
2014-04-18 06:59:00,71.7,70.5,30.02,North,0,0.0,0.0,96,0.00,CLR,,0.08,WeatherDisplay:10.37,2014-04-18 10:59:00,
2014-04-18 07:04:00,71.7,70.5,30.02,North,0,0.0,0.0,96,0.00,CLR,,0.08,WeatherDisplay:10.37,2014-04-18 11:04:00,
2014-04-18 07:09:00,71.7,70.5,30.03,North,0,0.0,0.0,96,0.00,CLR,,0.08,WeatherDisplay:10.37,2014-04-18 11:09:00,
2014-04-18 07:14:00,71.7,70.5,30.03,North,0,0.0,0.0,96,0.00,CLR,,0.08,WeatherDisplay:10.37,2014-04-18 11:14:00,
2014-04-18 07:19:00,71.7,70.5,30.03,North,0,0.0,0.0,96,0.00,CLR,,0.08,WeatherDisplay:10.37,2014-04-18 11:19:00,
2014-04-18 07:24:00,73.7,70.9,30.03,East,79,4.6,4.6,91,0.00,CLR,,0.08,WeatherDisplay:10.37,2014-04-18 11:24:00,
2014-04-18 07:29:00,73.6,71.1,30.04,SSE,156,1.1,0.0,92,0.00,CLR,,0.08,WeatherDisplay:10.37,2014-04-18 11:29:00,
2014-04-18 07:34:00,73.9,71.4,30.04,SSE,149,3.5,3.5,92,0.00,CLR,,0.08,WeatherDisplay:10.37,2014-04-18 11:34:00,
2014-04-18 07:39:00,74.5,71.7,30.05,SE,128,6.0,6.0,91,0.00,CLR,,0.08,WeatherDisplay:10.37,2014-04-18 11:39:00,
2014-04-18 07:44:00,75.0,71.9,30.05,SE,134,4.0,4.9,90,0.00,CLR,,0.08,WeatherDisplay:10.37,2014-04-18 11:44:00,
2014-04-18 07:49:00,75.1,71.6,30.05,South,188,8.0,8.0,89,0.00,CLR,,0.08,WeatherDisplay:10.37,2014-04-18 11:49:00,
2014-04-18 07:54:00,75.1,71.3,30.06,SSE,147,5.0,5.0,88,0.00,CLR,,0.08,WeatherDisplay:10.37,2014-04-18 11:54:00,
2014-04-18 07:59:00,75.5,71.7,30.06,ESE,105,4.0,4.0,88,0.00,CLR,,0.08,WeatherDisplay:10.37,2014-04-18 11:59:00,
2014-04-18 08:04:00,75.9,71.8,30.06,SE,126,6.9,6.9,87,0.00,CLR,,0.08,WeatherDisplay:10.37,2014-04-18 12:04:00,
2014-04-18 08:09:00,75.9,71.8,30.06,SE,144,4.6,4.6,87,0.00,CLR,,0.08,WeatherDisplay:10.37,2014-04-18 12:09:00,
2014-04-18 08:14:00,76.2,72.0,30.06,East,81,5.8,5.8,87,0.00,CLR,,0.08,WeatherDisplay:10.37,2014-04-18 12:14:00,
2014-04-18 08:19:00,76.4,71.9,30.06,SE,125,6.9,6.9,86,0.00,CLR,,0.08,WeatherDisplay:10.37,2014-04-18 12:19:00,
2014-04-18 08:24:00,76.8,71.9,30.06,ESE,123,5.8,5.8,85,0.00,CLR,,0.08,WeatherDisplay:10.37,2014-04-18 12:24:00,
2014-04-18 08:29:00,77.1,71.9,30.06,SE,125,8.1,8.1,84,0.00,CLR,,0.08,WeatherDisplay:10.37,2014-04-18 12:29:00,
2014-04-18 08:34:00,77.3,71.7,30.06,SE,125,9.2,9.2,83,0.00,CLR,,0.08,WeatherDisplay:10.37,2014-04-18 12:34:00,
2014-04-18 08:39:00,77.4,71.5,30.06,SE,146,11.5,11.5,82,0.00,CLR,,0.08,WeatherDisplay:10.37,2014-04-18 12:39:00,
2014-04-18 08:44:00,77.7,71.4,30.06,SE,141,8.1,8.1,81,0.00,CLR,,0.08,WeatherDisplay:10.37,2014-04-18 12:44:00,
2014-04-18 08:49:00,78.5,71.8,30.06,East,98,5.8,5.8,80,0.00,CLR,,0.08,WeatherDisplay:10.37,2014-04-18 12:49:00,
2014-04-18 08:54:00,78.9,71.8,30.06,SE,132,9.2,9.2,79,0.00,CLR,,0.08,WeatherDisplay:10.37,2014-04-18 12:54:00,
2014-04-18 08:59:00,78.9,71.8,30.06,South,186,8.1,8.1,79,0.00,CLR,,0.08,WeatherDisplay:10.37,2014-04-18 12:59:00,
2014-04-18 09:04:00,79.0,71.9,30.06,ESE,120,11.5,11.5,79,0.00,CLR,,0.08,WeatherDisplay:10.37,2014-04-18 13:04:00,
2014-04-18 09:09:00,79.2,71.4,30.06,ESE,122,9.2,9.2,77,0.00,CLR,,0.08,WeatherDisplay:10.37,2014-04-18 13:09:00,
2014-04-18 09:14:00,79.6,71.8,30.06,SSE,159,8.0,8.0,77,0.00,CLR,,0.08,WeatherDisplay:10.37,2014-04-18 13:14:00,
2014-04-18 09:19:00,79.6,71.8,30.05,North,355,11.5,11.5,77,0.00,CLR,,0.08,WeatherDisplay:10.37,2014-04-18 13:19:00,
2014-04-18 09:24:00,79.8,72.3,30.05,ESE,117,11.5,11.5,78,0.00,CLR,,0.08,WeatherDisplay:10.37,2014-04-18 13:24:00,
2014-04-18 09:29:00,80.1,72.2,30.05,SE,131,11.5,11.5,77,0.00,CLR,,0.08,WeatherDisplay:10.37,2014-04-18 13:29:00,
2014-04-18 09:34:00,80.2,72.3,30.05,SSE,156,11.5,11.5,77,0.00,CLR,,0.08,WeatherDisplay:10.37,2014-04-18 13:34:00,
2014-04-18 09:39:00,80.2,71.9,30.05,SSE,147,11.5,11.5,76,0.00,CLR,,0.08,WeatherDisplay:10.37,2014-04-18 13:39:00,
2014-04-18 09:44:00,80.0,71.8,30.05,SE,144,15.0,15.0,76,0.00,CLR,,0.08,WeatherDisplay:10.37,2014-04-18 13:44:00,
2014-04-18 09:49:00,80.2,71.9,30.05,East,85,17.3,17.3,76,0.00,CLR,,0.08,WeatherDisplay:10.37,2014-04-18 13:49:00,
2014-04-18 09:54:00,80.5,72.2,30.05,ESE,102,14.0,14.0,76,0.00,CLR,,0.08,WeatherDisplay:10.37,2014-04-18 13:54:00,
2014-04-18 09:59:00,80.4,71.7,30.05,ESE,108,18.4,18.4,75,0.00,CLR,,0.08,WeatherDisplay:10.37,2014-04-18 13:59:00,
2014-04-18 10:04:00,80.7,72.0,30.05,East,101,11.5,11.5,75,0.00,CLR,,0.08,WeatherDisplay:10.37,2014-04-18 14:04:00,
2014-04-18 10:09:00,81.2,72.1,30.05,South,175,15.0,15.0,74,0.00,CLR,,0.08,WeatherDisplay:10.37,2014-04-18 14:09:00,
2014-04-18 10:14:00,81.3,72.6,30.04,SSE,157,19.6,19.6,75,0.00,CLR,,0.08,WeatherDisplay:10.37,2014-04-18 14:14:00,
2014-04-18 10:19:00,81.3,72.2,30.04,SE,138,18.4,18.4,74,0.00,CLR,,0.08,WeatherDisplay:10.37,2014-04-18 14:19:00,
2014-04-18 10:24:00,81.4,72.7,30.04,ESE,111,13.8,13.8,75,0.00,CLR,,0.08,WeatherDisplay:10.37,2014-04-18 14:24:00,
2014-04-18 10:29:00,81.7,72.2,30.04,SSE,159,18.4,18.4,73,0.00,CLR,,0.08,WeatherDisplay:10.37,2014-04-18 14:29:00,
2014-04-18 10:34:00,81.7,72.6,30.04,SSE,165,11.5,11.5,74,0.00,CLR,,0.08,WeatherDisplay:10.37,2014-04-18 14:34:00,
2014-04-18 10:39:00,81.8,72.7,30.04,ESE,112,16.1,16.1,74,0.00,CLR,,0.08,WeatherDisplay:10.37,2014-04-18 14:39:00,
2014-04-18 10:44:00,81.4,71.5,30.05,SE,131,15.0,15.0,72,0.00,CLR,,0.08,WeatherDisplay:10.37,2014-04-18 14:44:00,
2014-04-18 10:49:00,81.5,72.0,30.05,SE,134,15.0,15.0,73,0.00,CLR,,0.08,WeatherDisplay:10.37,2014-04-18 14:49:00,
2014-04-18 10:54:00,81.4,71.9,30.05,ESE,113,8.1,8.1,73,0.00,CLR,,0.08,WeatherDisplay:10.37,2014-04-18 14:54:00,
2014-04-18 10:59:00,81.9,72.8,30.05,SE,133,10.4,10.4,74,0.00,CLR,,0.08,WeatherDisplay:10.37,2014-04-18 14:59:00,
2014-04-18 11:04:00,82.3,72.4,30.05,ESE,120,12.7,12.7,72,0.00,CLR,,0.08,WeatherDisplay:10.37,2014-04-18 15:04:00,
2014-04-18 11:09:00,82.0,72.5,30.05,SE,127,15.0,15.0,73,0.00,CLR,,0.08,WeatherDisplay:10.37,2014-04-18 15:09:00,
2014-04-18 11:14:00,82.0,72.1,30.05,SE,130,14.0,14.0,72,0.00,CLR,,0.08,WeatherDisplay:10.37,2014-04-18 15:14:00,
2014-04-18 11:19:00,82.1,72.6,30.05,SSE,167,13.0,13.0,73,0.00,CLR,,0.08,WeatherDisplay:10.37,2014-04-18 15:19:00,
2014-04-18 11:25:00,82.3,72.8,30.05,SE,138,11.5,11.5,73,0.00,CLR,,0.08,WeatherDisplay:10.37,2014-04-18 15:25:00,
2014-04-18 11:30:00,82.1,72.6,30.05,SE,131,8.1,8.1,73,0.00,CLR,,0.08,WeatherDisplay:10.37,2014-04-18 15:30:00,
2014-04-18 11:35:00,81.7,72.6,30.05,ESE,116,12.7,12.7,74,0.00,CLR,,0.08,WeatherDisplay:10.37,2014-04-18 15:35:00,
2014-04-18 11:40:00,81.8,72.3,30.05,SE,135,13.8,13.8,73,0.00,CLR,,0.08,WeatherDisplay:10.37,2014-04-18 15:40:00,
2014-04-18 11:45:00,82.7,73.2,30.05,SE,134,15.0,15.0,73,0.00,CLR,,0.08,WeatherDisplay:10.37,2014-04-18 15:45:00,
2014-04-18 11:50:00,83.2,72.8,30.05,ESE,122,12.7,12.7,71,0.00,CLR,,0.08,WeatherDisplay:10.37,2014-04-18 15:50:00,
2014-04-18 11:55:00,82.7,72.7,30.05,SE,131,13.8,13.8,72,0.00,CLR,,0.08,WeatherDisplay:10.37,2014-04-18 15:55:00,
2014-04-18 12:00:00,82.5,72.1,30.05,SE,130,12.7,12.7,71,0.00,CLR,,0.08,WeatherDisplay:10.37,2014-04-18 16:00:00,
2014-04-18 12:05:00,82.4,72.5,30.05,ESE,111,13.8,13.8,72,0.00,CLR,,0.08,WeatherDisplay:10.37,2014-04-18 16:05:00,
2014-04-18 12:10:00,82.5,72.6,30.04,SE,125,18.4,18.4,72,0.00,CLR,,0.08,WeatherDisplay:10.37,2014-04-18 16:10:00,
2014-04-18 12:15:00,82.8,72.8,30.04,ESE,119,12.7,12.7,72,0.00,CLR,,0.08,WeatherDisplay:10.37,2014-04-18 16:15:00,
2014-04-18 12:20:00,82.6,71.8,30.04,East,98,20.7,20.7,70,0.00,CLR,,0.08,WeatherDisplay:10.37,2014-04-18 16:20:00,
2014-04-18 12:25:00,82.7,72.7,30.04,SSE,152,9.2,9.2,72,0.00,CLR,,0.08,WeatherDisplay:10.37,2014-04-18 16:25:00,
2014-04-18 12:30:00,83.1,72.7,30.04,ESE,117,12.7,12.7,71,0.00,CLR,,0.08,WeatherDisplay:10.37,2014-04-18 16:30:00,
2014-04-18 12:35:00,83.3,72.5,30.04,SE,141,18.4,18.4,70,0.00,CLR,,0.08,WeatherDisplay:10.37,2014-04-18 16:35:00,
2014-04-18 12:40:00,83.7,73.3,30.03,SE,142,13.8,13.8,71,0.00,CLR,,0.08,WeatherDisplay:10.37,2014-04-18 16:40:00,
2014-04-18 12:45:00,83.5,72.7,30.03,SE,130,14.0,14.0,70,0.00,CLR,,0.08,WeatherDisplay:10.37,2014-04-18 16:45:00,
2014-04-18 12:50:00,83.7,72.9,30.03,SSE,153,9.2,9.3,70,0.00,CLR,,0.08,WeatherDisplay:10.37,2014-04-18 16:50:00,
2014-04-18 12:55:00,83.1,73.1,30.03,SSE,153,9.2,9.2,72,0.00,CLR,,0.08,WeatherDisplay:10.37,2014-04-18 16:55:00,
2014-04-18 13:00:00,83.3,72.5,30.03,SE,141,11.5,11.5,70,0.00,CLR,,0.08,WeatherDisplay:10.37,2014-04-18 17:00:00,
2014-04-18 13:05:00,83.2,73.2,30.02,SSE,167,17.3,17.3,72,0.00,CLR,,0.08,WeatherDisplay:10.37,2014-04-18 17:05:00,
2014-04-18 13:10:00,83.6,73.6,30.02,SE,141,16.0,16.0,72,0.00,CLR,,0.08,WeatherDisplay:10.37,2014-04-18 17:10:00,
2014-04-18 13:15:00,83.7,73.7,30.02,ESE,122,10.4,10.4,72,0.00,CLR,,0.08,WeatherDisplay:10.37,2014-04-18 17:15:00,
2014-04-18 13:20:00,84.3,73.9,30.03,ESE,107,13.8,13.8,71,0.00,CLR,,0.08,WeatherDisplay:10.37,2014-04-18 17:20:00,
2014-04-18 13:25:00,83.6,73.2,30.02,SE,134,16.1,16.1,71,0.00,CLR,,0.08,WeatherDisplay:10.37,2014-04-18 17:25:00,
2014-04-18 13:30:00,83.3,73.3,30.02,ESE,123,12.7,12.7,72,0.00,CLR,,0.08,WeatherDisplay:10.37,2014-04-18 17:30:00,
2014-04-18 13:35:00,83.0,72.2,30.02,ESE,120,11.5,11.5,70,0.00,CLR,,0.08,WeatherDisplay:10.37,2014-04-18 17:35:00,
2014-04-18 13:40:00,82.7,73.2,30.02,ESE,122,11.5,11.5,73,0.00,CLR,,0.08,WeatherDisplay:10.37,2014-04-18 17:40:00,
2014-04-18 13:45:00,82.9,73.4,30.02,SE,146,11.5,11.5,73,0.00,CLR,,0.08,WeatherDisplay:10.37,2014-04-18 17:45:00,
2014-04-18 13:50:00,82.7,74.0,30.02,ESE,107,13.8,13.8,75,0.00,CLR,,0.08,WeatherDisplay:10.37,2014-04-18 17:50:00,
2014-04-18 13:55:00,82.5,73.0,30.02,East,94,15.0,15.0,73,0.00,CLR,,0.08,WeatherDisplay:10.37,2014-04-18 17:55:00,
2014-04-18 14:00:00,82.2,73.1,30.02,SE,130,16.1,16.1,74,0.00,CLR,,0.08,WeatherDisplay:10.37,2014-04-18 18:00:00,
2014-04-18 14:05:00,82.5,73.4,30.01,SSE,152,11.5,11.5,74,0.00,CLR,,0.08,WeatherDisplay:10.37,2014-04-18 18:05:00,
2014-04-18 14:10:00,82.7,73.2,30.01,South,179,11.5,11.5,73,0.00,CLR,,0.08,WeatherDisplay:10.37,2014-04-18 18:10:00,
2014-04-18 14:15:00,83.3,73.3,30.01,SE,128,12.7,12.7,72,0.00,CLR,,0.08,WeatherDisplay:10.37,2014-04-18 18:15:00,
2014-04-18 14:20:00,83.4,73.0,30.01,East,90,16.1,16.1,71,0.00,CLR,,0.08,WeatherDisplay:10.37,2014-04-18 18:20:00,
2014-04-18 14:25:00,83.6,73.6,30.01,East,92,15.0,15.0,72,0.00,CLR,,0.08,WeatherDisplay:10.37,2014-04-18 18:25:00,
2014-04-18 14:30:00,83.5,73.9,30.01,SE,141,11.5,11.5,73,0.00,CLR,,0.08,WeatherDisplay:10.37,2014-04-18 18:30:00,
2014-04-18 14:35:00,83.7,74.1,30.01,ESE,118,11.5,11.5,73,0.00,CLR,,0.08,WeatherDisplay:10.37,2014-04-18 18:35:00,
2014-04-18 14:40:00,82.9,73.8,30.01,SE,137,6.9,6.9,74,0.00,CLR,,0.08,WeatherDisplay:10.37,2014-04-18 18:40:00,
2014-04-18 14:45:00,83.0,73.9,30.01,ESE,121,11.5,11.5,74,0.00,CLR,,0.08,WeatherDisplay:10.37,2014-04-18 18:45:00,
2014-04-18 14:50:00,82.7,74.0,30.01,SE,135,11.5,11.5,75,0.00,CLR,,0.08,WeatherDisplay:10.37,2014-04-18 18:50:00,
2014-04-18 14:55:00,82.6,74.3,30.01,ESE,104,12.7,12.7,76,0.00,CLR,,0.08,WeatherDisplay:10.37,2014-04-18 18:55:00,
2014-04-18 15:00:00,82.9,74.6,30.00,ESE,115,8.1,8.1,76,0.00,CLR,,0.08,WeatherDisplay:10.37,2014-04-18 19:00:00,
2014-04-18 15:05:00,83.7,74.5,30.00,SSE,152,10.4,10.4,74,0.00,CLR,,0.08,WeatherDisplay:10.37,2014-04-18 19:05:00,
2014-04-18 15:10:00,84.6,73.3,30.00,SSE,149,19.6,19.6,69,0.00,CLR,,0.08,WeatherDisplay:10.37,2014-04-18 19:10:00,
2014-04-18 15:15:00,84.9,72.7,30.00,SE,141,13.8,13.8,67,0.00,CLR,,0.08,WeatherDisplay:10.37,2014-04-18 19:15:00,
2014-04-18 15:20:00,85.5,72.4,30.00,SSE,155,13.8,13.8,65,0.00,CLR,,0.08,WeatherDisplay:10.37,2014-04-18 19:20:00,
2014-04-18 15:25:00,85.5,72.4,29.99,SE,144,15.0,15.0,65,0.00,CLR,,0.08,WeatherDisplay:10.37,2014-04-18 19:25:00,
2014-04-18 15:30:00,85.8,72.2,29.99,SE,144,18.4,18.4,64,0.00,CLR,,0.08,WeatherDisplay:10.37,2014-04-18 19:30:00,
2014-04-18 15:35:00,85.5,72.4,29.99,ESE,117,15.0,15.0,65,0.00,CLR,,0.08,WeatherDisplay:10.37,2014-04-18 19:35:00,
2014-04-18 15:40:00,84.8,71.7,29.99,SE,130,19.6,19.6,65,0.00,CLR,,0.08,WeatherDisplay:10.37,2014-04-18 19:40:00,
2014-04-18 15:45:00,84.3,72.1,29.99,SSE,149,18.4,18.4,67,0.00,CLR,,0.08,WeatherDisplay:10.37,2014-04-18 19:45:00,
2014-04-18 15:50:00,84.4,72.7,29.99,ESE,123,10.4,10.4,68,0.00,CLR,,0.08,WeatherDisplay:10.37,2014-04-18 19:50:00,
2014-04-18 15:55:00,84.2,72.9,29.99,South,171,11.5,11.5,69,0.00,CLR,,0.08,WeatherDisplay:10.37,2014-04-18 19:55:00,
2014-04-18 16:01:00,83.9,73.1,29.99,SE,132,13.8,13.8,70,0.00,CLR,,0.08,WeatherDisplay:10.37,2014-04-18 20:01:00,
2014-04-18 16:06:00,83.9,72.6,29.99,SE,128,13.0,13.0,69,0.00,CLR,,0.08,WeatherDisplay:10.37,2014-04-18 20:06:00,